sensor_id;sensor_type;location;lat;lon;timestamp;pressure;altitude;pressure_sealevel;temperature;humidity
13486;BME280;6815;59.336;17.998;2022-11-21T00:01:58;77732.47;;;-145.37;100.00
13486;BME280;6815;59.336;17.998;2022-11-21T00:04:23;77734.50;;;-145.37;100.00
13486;BME280;6815;59.336;17.998;2022-11-21T00:06:49;77750.59;;;-145.37;100.00
13486;BME280;6815;59.336;17.998;2022-11-21T00:09:17;77728.47;;;-145.37;100.00
13486;BME280;6815;59.336;17.998;2022-11-21T00:11:42;77740.53;;;-145.37;100.00
13486;BME280;6815;59.336;17.998;2022-11-21T00:14:08;77732.47;;;-145.37;100.00
13486;BME280;6815;59.336;17.998;2022-11-21T00:16:33;77732.47;;;-145.37;100.00
13486;BME280;6815;59.336;17.998;2022-11-21T00:18:58;77728.47;;;-145.37;100.00
13486;BME280;6815;59.336;17.998;2022-11-21T00:21:24;77744.53;;;-145.37;100.00
13486;BME280;6815;59.336;17.998;2022-11-21T00:23:51;77750.59;;;-145.37;100.00
13486;BME280;6815;59.336;17.998;2022-11-21T00:26:16;77742.53;;;-145.37;100.00
13486;BME280;6815;59.336;17.998;2022-11-21T00:28:42;77736.50;;;-145.37;100.00
13486;BME280;6815;59.336;17.998;2022-11-21T00:31:08;77746.56;;;-145.37;100.00
13486;BME280;6815;59.336;17.998;2022-11-21T00:33:34;77738.50;;;-145.37;100.00
13486;BME280;6815;59.336;17.998;2022-11-21T00:36:05;77756.63;;;-145.37;100.00
13486;BME280;6815;59.336;17.998;2022-11-21T00:38:31;77740.53;;;-145.37;100.00
13486;BME280;6815;59.336;17.998;2022-11-21T00:40:56;77734.50;;;-145.37;100.00
13486;BME280;6815;59.336;17.998;2022-11-21T00:43:22;77734.50;;;-145.37;100.00
13486;BME280;6815;59.336;17.998;2022-11-21T00:45:47;77732.47;;;-145.37;100.00
13486;BME280;6815;59.336;17.998;2022-11-21T00:48:13;77718.41;;;-145.37;100.00
13486;BME280;6815;59.336;17.998;2022-11-21T00:50:38;77730.47;;;-145.37;100.00
13486;BME280;6815;59.336;17.998;2022-11-21T00:53:03;77748.56;;;-145.37;100.00
13486;BME280;6815;59.336;17.998;2022-11-21T00:55:29;77746.56;;;-145.37;100.00
13486;BME280;6815;59.336;17.998;2022-11-21T00:57:54;77726.44;;;-145.37;100.00
13486;BME280;6815;59.336;17.998;2022-11-21T01:00:20;77714.38;;;-145.37;100.00
13486;BME280;6815;59.336;17.998;2022-11-21T01:02:45;77716.38;;;-145.37;99.70
13486;BME280;6815;59.336;17.998;2022-11-21T01:05:12;77704.31;;;-145.37;98.86
13486;BME280;6815;59.336;17.998;2022-11-21T01:07:37;77712.38;;;-145.37;98.48
13486;BME280;6815;59.336;17.998;2022-11-21T01:10:03;77700.28;;;-145.37;98.34
13486;BME280;6815;59.336;17.998;2022-11-21T01:12:30;77690.25;;;-145.37;97.77
13486;BME280;6815;59.336;17.998;2022-11-21T01:14:55;77686.22;;;-145.37;96.37
13486;BME280;6815;59.336;17.998;2022-11-21T01:17:21;77678.19;;;-145.37;93.39
13486;BME280;6815;59.336;17.998;2022-11-21T01:19:46;77668.13;;;-145.37;92.09
13486;BME280;6815;59.336;17.998;2022-11-21T01:22:11;77678.19;;;-145.37;92.20
13486;BME280;6815;59.336;17.998;2022-11-21T01:24:37;77666.09;;;-145.37;91.30
13486;BME280;6815;59.336;17.998;2022-11-21T01:27:03;77664.09;;;-145.37;90.75
13486;BME280;6815;59.336;17.998;2022-11-21T01:29:28;77684.22;;;-145.37;89.18
13486;BME280;6815;59.336;17.998;2022-11-21T01:31:53;77676.16;;;-145.37;89.15
13486;BME280;6815;59.336;17.998;2022-11-21T01:34:19;77686.22;;;-145.37;89.45
13486;BME280;6815;59.336;17.998;2022-11-21T01:36:44;77696.28;;;-145.37;87.93
13486;BME280;6815;59.336;17.998;2022-11-21T01:39:11;77694.25;;;-145.37;87.56
13486;BME280;6815;59.336;17.998;2022-11-21T01:41:42;77690.25;;;-145.37;87.57
13486;BME280;6815;59.336;17.998;2022-11-21T01:44:54;77696.28;;;-145.37;86.61
13486;BME280;6815;59.336;17.998;2022-11-21T01:47:01;77692.25;;;-145.37;87.00
13486;BME280;6815;59.336;17.998;2022-11-21T01:49:28;77700.28;;;-145.37;87.07
13486;BME280;6815;59.336;17.998;2022-11-21T01:52:00;77706.34;;;-145.37;86.51
13486;BME280;6815;59.336;17.998;2022-11-21T01:54:43;77718.41;;;-145.37;85.15
13486;BME280;6815;59.336;17.998;2022-11-21T01:57:28;77716.38;;;-145.37;84.31
13486;BME280;6815;59.336;17.998;2022-11-21T02:02:27;77724.44;;;-145.37;83.36
13486;BME280;6815;59.336;17.998;2022-11-21T02:04:54;77724.44;;;-145.37;83.31
13486;BME280;6815;59.336;17.998;2022-11-21T02:07:21;77724.44;;;-145.37;83.30
13486;BME280;6815;59.336;17.998;2022-11-21T02:09:56;77732.47;;;-145.37;83.33
13486;BME280;6815;59.336;17.998;2022-11-21T02:12:28;77720.41;;;-145.37;82.78
13486;BME280;6815;59.336;17.998;2022-11-21T02:14:57;77718.41;;;-145.37;83.89
13486;BME280;6815;59.336;17.998;2022-11-21T02:17:25;77740.53;;;-145.37;83.47
13486;BME280;6815;59.336;17.998;2022-11-21T02:25:30;77744.53;;;-145.37;83.14
13486;BME280;6815;59.336;17.998;2022-11-21T02:27:58;77734.50;;;-145.37;82.53
13486;BME280;6815;59.336;17.998;2022-11-21T02:30:26;77734.50;;;-145.37;82.46
13486;BME280;6815;59.336;17.998;2022-11-21T02:32:52;77738.50;;;-145.37;82.17
13486;BME280;6815;59.336;17.998;2022-11-21T02:35:18;77742.53;;;-145.37;82.78
13486;BME280;6815;59.336;17.998;2022-11-21T02:37:46;77730.47;;;-145.37;83.05
13486;BME280;6815;59.336;17.998;2022-11-21T02:40:16;77728.47;;;-145.37;83.16
13486;BME280;6815;59.336;17.998;2022-11-21T02:42:50;77730.47;;;-145.37;82.10
13486;BME280;6815;59.336;17.998;2022-11-21T02:45:25;77736.50;;;-145.37;83.14
13486;BME280;6815;59.336;17.998;2022-11-21T02:47:53;77722.41;;;-145.37;82.36
13486;BME280;6815;59.336;17.998;2022-11-21T02:50:22;77738.50;;;-145.37;81.74
13486;BME280;6815;59.336;17.998;2022-11-21T02:52:50;77738.50;;;-145.37;82.07
13486;BME280;6815;59.336;17.998;2022-11-21T02:55:15;77740.53;;;-145.37;82.09
13486;BME280;6815;59.336;17.998;2022-11-21T02:57:41;77732.47;;;-145.37;81.95
13486;BME280;6815;59.336;17.998;2022-11-21T03:00:08;77742.53;;;-145.37;82.00
13486;BME280;6815;59.336;17.998;2022-11-21T03:02:34;77738.50;;;-145.37;81.65
13486;BME280;6815;59.336;17.998;2022-11-21T03:05:00;77734.50;;;-145.37;82.15
13486;BME280;6815;59.336;17.998;2022-11-21T03:07:25;77748.56;;;-145.37;81.29
13486;BME280;6815;59.336;17.998;2022-11-21T03:09:51;77740.53;;;-145.37;81.68
13486;BME280;6815;59.336;17.998;2022-11-21T03:12:16;77740.53;;;-145.37;81.83
13486;BME280;6815;59.336;17.998;2022-11-21T03:14:41;77732.47;;;-145.37;81.88
13486;BME280;6815;59.336;17.998;2022-11-21T03:17:07;77736.50;;;-145.37;82.33
13486;BME280;6815;59.336;17.998;2022-11-21T03:19:32;77734.50;;;-145.37;81.90
13486;BME280;6815;59.336;17.998;2022-11-21T03:21:58;77738.50;;;-145.37;82.34
13486;BME280;6815;59.336;17.998;2022-11-21T03:24:23;77738.50;;;-145.37;82.49
13486;BME280;6815;59.336;17.998;2022-11-21T03:26:49;77744.53;;;-145.37;81.95
13486;BME280;6815;59.336;17.998;2022-11-21T03:29:14;77746.56;;;-145.37;82.46
13486;BME280;6815;59.336;17.998;2022-11-21T03:31:39;77740.53;;;-145.37;82.63
13486;BME280;6815;59.336;17.998;2022-11-21T03:34:05;77740.53;;;-145.37;82.55
13486;BME280;6815;59.336;17.998;2022-11-21T03:36:30;77744.53;;;-145.37;81.88
13486;BME280;6815;59.336;17.998;2022-11-21T03:38:56;77742.53;;;-145.37;82.34
13486;BME280;6815;59.336;17.998;2022-11-21T03:41:24;77748.56;;;-145.37;81.84
13486;BME280;6815;59.336;17.998;2022-11-21T03:44:13;77740.53;;;-145.37;83.41
13486;BME280;6815;59.336;17.998;2022-11-21T03:46:43;77736.50;;;-145.37;82.17
13486;BME280;6815;59.336;17.998;2022-11-21T03:49:10;77740.53;;;-145.37;81.36
13486;BME280;6815;59.336;17.998;2022-11-21T03:51:36;77748.56;;;-145.37;81.12
13486;BME280;6815;59.336;17.998;2022-11-21T03:54:02;77740.53;;;-145.37;80.35
13486;BME280;6815;59.336;17.998;2022-11-21T03:56:28;77744.53;;;-145.37;80.37
13486;BME280;6815;59.336;17.998;2022-11-21T03:58:54;77732.47;;;-145.37;80.54
13486;BME280;6815;59.336;17.998;2022-11-21T04:01:20;77744.53;;;-145.37;81.27
13486;BME280;6815;59.336;17.998;2022-11-21T04:03:45;77752.59;;;-145.37;80.99
13486;BME280;6815;59.336;17.998;2022-11-21T04:06:13;77764.66;;;-145.37;81.05
13486;BME280;6815;59.336;17.998;2022-11-21T04:08:39;77762.66;;;-145.37;80.96
13486;BME280;6815;59.336;17.998;2022-11-21T04:11:05;77758.63;;;-145.37;80.95
13486;BME280;6815;59.336;17.998;2022-11-21T04:13:31;77764.66;;;-145.37;81.26
13486;BME280;6815;59.336;17.998;2022-11-21T04:15:56;77764.66;;;-145.37;79.40
13486;BME280;6815;59.336;17.998;2022-11-21T04:18:22;77760.63;;;-145.37;79.46
13486;BME280;6815;59.336;17.998;2022-11-21T04:20:47;77752.59;;;-145.37;79.14
13486;BME280;6815;59.336;17.998;2022-11-21T04:23:12;77760.63;;;-145.37;78.78
13486;BME280;6815;59.336;17.998;2022-11-21T04:25:39;77752.59;;;-145.37;78.43
13486;BME280;6815;59.336;17.998;2022-11-21T04:28:05;77744.53;;;-145.37;78.74
13486;BME280;6815;59.336;17.998;2022-11-21T04:30:32;77740.53;;;-145.37;78.54
13486;BME280;6815;59.336;17.998;2022-11-21T04:32:58;77740.53;;;-145.37;78.82
13486;BME280;6815;59.336;17.998;2022-11-21T04:35:24;77746.56;;;-145.37;78.85
13486;BME280;6815;59.336;17.998;2022-11-21T04:37:50;77746.56;;;-145.37;79.36
13486;BME280;6815;59.336;17.998;2022-11-21T04:40:18;77742.53;;;-145.37;79.59
13486;BME280;6815;59.336;17.998;2022-11-21T04:42:46;77724.44;;;-145.37;79.74
13486;BME280;6815;59.336;17.998;2022-11-21T04:45:13;77728.47;;;-145.37;80.23
13486;BME280;6815;59.336;17.998;2022-11-21T04:47:40;77746.56;;;-145.37;79.15
13486;BME280;6815;59.336;17.998;2022-11-21T04:50:07;77742.53;;;-145.37;79.05
13486;BME280;6815;59.336;17.998;2022-11-21T04:52:33;77732.47;;;-145.37;79.25
13486;BME280;6815;59.336;17.998;2022-11-21T04:54:58;77746.56;;;-145.37;79.62
13486;BME280;6815;59.336;17.998;2022-11-21T04:57:26;77740.53;;;-145.37;77.93
13486;BME280;6815;59.336;17.998;2022-11-21T04:59:52;77736.50;;;-145.37;78.92
13486;BME280;6815;59.336;17.998;2022-11-21T05:02:17;77736.50;;;-145.37;79.02
13486;BME280;6815;59.336;17.998;2022-11-21T05:04:43;77730.47;;;-145.37;79.28
13486;BME280;6815;59.336;17.998;2022-11-21T05:07:08;77730.47;;;-145.37;79.21
13486;BME280;6815;59.336;17.998;2022-11-21T05:09:33;77744.53;;;-145.37;79.95
13486;BME280;6815;59.336;17.998;2022-11-21T05:11:59;77736.50;;;-145.37;80.40
13486;BME280;6815;59.336;17.998;2022-11-21T05:14:43;77746.56;;;-145.37;81.21
13486;BME280;6815;59.336;17.998;2022-11-21T05:17:09;77736.50;;;-145.37;81.60
13486;BME280;6815;59.336;17.998;2022-11-21T05:19:34;77732.47;;;-145.37;81.26
13486;BME280;6815;59.336;17.998;2022-11-21T05:21:59;77732.47;;;-145.37;82.25
13486;BME280;6815;59.336;17.998;2022-11-21T05:24:25;77736.50;;;-145.37;82.17
13486;BME280;6815;59.336;17.998;2022-11-21T05:26:50;77736.50;;;-145.37;82.87
13486;BME280;6815;59.336;17.998;2022-11-21T05:29:16;77736.50;;;-145.37;83.33
13486;BME280;6815;59.336;17.998;2022-11-21T05:31:41;77722.41;;;-145.37;83.39
13486;BME280;6815;59.336;17.998;2022-11-21T05:34:07;77716.38;;;-145.37;83.33
13486;BME280;6815;59.336;17.998;2022-11-21T05:36:32;77724.44;;;-145.37;83.83
13486;BME280;6815;59.336;17.998;2022-11-21T05:38:58;77726.44;;;-145.37;84.11
13486;BME280;6815;59.336;17.998;2022-11-21T05:41:23;77726.44;;;-145.37;84.32
13486;BME280;6815;59.336;17.998;2022-11-21T05:43:48;77730.47;;;-145.37;84.68
13486;BME280;6815;59.336;17.998;2022-11-21T05:46:19;77726.44;;;-145.37;85.23
13486;BME280;6815;59.336;17.998;2022-11-21T05:48:46;77726.44;;;-145.37;85.33
13486;BME280;6815;59.336;17.998;2022-11-21T05:51:12;77732.47;;;-145.37;85.41
13486;BME280;6815;59.336;17.998;2022-11-21T05:53:38;77736.50;;;-145.37;85.31
13486;BME280;6815;59.336;17.998;2022-11-21T05:56:12;77734.50;;;-145.37;85.32
13486;BME280;6815;59.336;17.998;2022-11-21T05:58:38;77730.47;;;-145.37;85.91
13486;BME280;6815;59.336;17.998;2022-11-21T06:01:04;77734.50;;;-145.37;85.48
13486;BME280;6815;59.336;17.998;2022-11-21T06:03:33;77730.47;;;-145.37;85.96
13486;BME280;6815;59.336;17.998;2022-11-21T06:06:05;77730.47;;;-145.37;86.14
13486;BME280;6815;59.336;17.998;2022-11-21T06:08:37;77730.47;;;-145.37;86.67
13486;BME280;6815;59.336;17.998;2022-11-21T06:11:03;77730.47;;;-145.37;86.76
13486;BME280;6815;59.336;17.998;2022-11-21T06:13:30;77750.59;;;-145.37;87.86
13486;BME280;6815;59.336;17.998;2022-11-21T06:16:04;77760.63;;;-145.37;89.34
13486;BME280;6815;59.336;17.998;2022-11-21T06:18:32;77764.66;;;-145.37;92.31
13486;BME280;6815;59.336;17.998;2022-11-21T06:23:27;77760.63;;;-145.37;93.78
13486;BME280;6815;59.336;17.998;2022-11-21T06:25:57;77764.66;;;-145.37;94.49
13486;BME280;6815;59.336;17.998;2022-11-21T06:28:23;77768.69;;;-145.37;94.15
13486;BME280;6815;59.336;17.998;2022-11-21T06:30:48;77770.69;;;-145.37;94.18
13486;BME280;6815;59.336;17.998;2022-11-21T06:33:16;77766.66;;;-145.37;94.20
13486;BME280;6815;59.336;17.998;2022-11-21T06:35:42;77772.69;;;-145.37;94.89
13486;BME280;6815;59.336;17.998;2022-11-21T06:38:07;77770.69;;;-145.37;95.00
13486;BME280;6815;59.336;17.998;2022-11-21T06:40:33;77776.72;;;-145.37;95.52
13486;BME280;6815;59.336;17.998;2022-11-21T06:42:59;77772.69;;;-145.37;95.15
13486;BME280;6815;59.336;17.998;2022-11-21T06:45:24;77770.69;;;-145.37;95.42
13486;BME280;6815;59.336;17.998;2022-11-21T06:47:50;77772.69;;;-145.37;95.34
13486;BME280;6815;59.336;17.998;2022-11-21T06:50:15;77758.63;;;-145.37;95.20
13486;BME280;6815;59.336;17.998;2022-11-21T06:52:41;77764.66;;;-145.37;96.12
13486;BME280;6815;59.336;17.998;2022-11-21T06:55:08;77772.69;;;-145.37;95.77
13486;BME280;6815;59.336;17.998;2022-11-21T06:57:34;77766.66;;;-145.37;95.85
13486;BME280;6815;59.336;17.998;2022-11-21T06:59:59;77760.63;;;-145.37;95.26
13486;BME280;6815;59.336;17.998;2022-11-21T07:02:24;77760.63;;;-145.37;94.59
13486;BME280;6815;59.336;17.998;2022-11-21T07:04:51;77756.63;;;-145.37;94.54
13486;BME280;6815;59.336;17.998;2022-11-21T07:07:16;77760.63;;;-145.37;94.51
13486;BME280;6815;59.336;17.998;2022-11-21T07:09:42;77748.56;;;-145.37;94.22
13486;BME280;6815;59.336;17.998;2022-11-21T07:12:09;77746.56;;;-145.37;93.97
13486;BME280;6815;59.336;17.998;2022-11-21T07:14:53;77740.53;;;-145.37;93.44
13486;BME280;6815;59.336;17.998;2022-11-21T07:17:19;77740.53;;;-145.37;93.16
13486;BME280;6815;59.336;17.998;2022-11-21T07:19:45;77738.50;;;-145.37;93.06
13486;BME280;6815;59.336;17.998;2022-11-21T07:22:11;77728.47;;;-145.37;92.90
13486;BME280;6815;59.336;17.998;2022-11-21T07:24:36;77730.47;;;-145.37;92.99
13486;BME280;6815;59.336;17.998;2022-11-21T07:27:01;77728.47;;;-145.37;92.08
13486;BME280;6815;59.336;17.998;2022-11-21T07:29:27;77726.44;;;-145.37;91.77
13486;BME280;6815;59.336;17.998;2022-11-21T07:31:53;77726.44;;;-145.37;91.27
13486;BME280;6815;59.336;17.998;2022-11-21T07:34:19;77728.47;;;-145.37;90.33
13486;BME280;6815;59.336;17.998;2022-11-21T07:36:44;77730.47;;;-145.37;87.97
13486;BME280;6815;59.336;17.998;2022-11-21T07:39:10;77722.41;;;-145.37;86.69
13486;BME280;6815;59.336;17.998;2022-11-21T07:41:35;77720.41;;;-145.37;84.59
13486;BME280;6815;59.336;17.998;2022-11-21T07:44:01;77714.38;;;-145.37;85.55
13486;BME280;6815;59.336;17.998;2022-11-21T07:46:26;77720.41;;;-145.37;85.47
13486;BME280;6815;59.336;17.998;2022-11-21T07:48:52;77722.41;;;-145.37;86.60
13486;BME280;6815;59.336;17.998;2022-11-21T07:51:17;77726.44;;;-145.37;86.36
13486;BME280;6815;59.336;17.998;2022-11-21T07:53:43;77728.47;;;-145.37;86.42
13486;BME280;6815;59.336;17.998;2022-11-21T07:56:08;77718.41;;;-145.37;86.36
13486;BME280;6815;59.336;17.998;2022-11-21T07:58:34;77730.47;;;-145.37;86.06
13486;BME280;6815;59.336;17.998;2022-11-21T08:01:04;77744.53;;;-145.37;87.66
13486;BME280;6815;59.336;17.998;2022-11-21T08:03:31;77754.59;;;-145.37;90.62
13486;BME280;6815;59.336;17.998;2022-11-21T08:06:00;77780.75;;;-145.37;93.47
13486;BME280;6815;59.336;17.998;2022-11-21T08:08:25;77788.78;;;-145.37;95.19
13486;BME280;6815;59.336;17.998;2022-11-21T08:10:51;77794.81;;;-145.37;95.88
13486;BME280;6815;59.336;17.998;2022-11-21T08:13:16;77822.97;;;-145.37;97.22
13486;BME280;6815;59.336;17.998;2022-11-21T08:15:42;77825.00;;;-145.37;97.89
13486;BME280;6815;59.336;17.998;2022-11-21T08:18:13;77825.00;;;-145.37;97.97
13486;BME280;6815;59.336;17.998;2022-11-21T08:20:38;77831.03;;;-145.37;98.29
13486;BME280;6815;59.336;17.998;2022-11-21T08:23:04;77825.00;;;-145.37;98.31
13486;BME280;6815;59.336;17.998;2022-11-21T08:25:30;77808.91;;;-145.37;98.28
13486;BME280;6815;59.336;17.998;2022-11-21T08:27:56;77802.88;;;-145.37;98.20
13486;BME280;6815;59.336;17.998;2022-11-21T08:30:22;77829.03;;;-145.37;98.83
13486;BME280;6815;59.336;17.998;2022-11-21T08:32:47;77845.09;;;-145.37;99.63
13486;BME280;6815;59.336;17.998;2022-11-21T08:35:12;77853.16;;;-145.37;100.00
13486;BME280;6815;59.336;17.998;2022-11-21T08:37:38;77845.09;;;-145.37;100.00
13486;BME280;6815;59.336;17.998;2022-11-21T08:40:04;77829.03;;;-145.37;100.00
13486;BME280;6815;59.336;17.998;2022-11-21T08:42:29;77833.03;;;-145.37;100.00
13486;BME280;6815;59.336;17.998;2022-11-21T08:44:54;77814.94;;;-145.37;100.00
13486;BME280;6815;59.336;17.998;2022-11-21T08:47:20;77810.91;;;-145.37;99.85
13486;BME280;6815;59.336;17.998;2022-11-21T08:49:46;77808.91;;;-145.37;99.24
13486;BME280;6815;59.336;17.998;2022-11-21T08:52:12;77790.81;;;-145.37;98.68
13486;BME280;6815;59.336;17.998;2022-11-21T08:54:38;77808.91;;;-145.37;98.99
13486;BME280;6815;59.336;17.998;2022-11-21T08:57:03;77822.97;;;-145.37;99.42
13486;BME280;6815;59.336;17.998;2022-11-21T08:59:29;77810.91;;;-145.37;99.53
13486;BME280;6815;59.336;17.998;2022-11-21T09:01:54;77829.03;;;-145.37;99.89
13486;BME280;6815;59.336;17.998;2022-11-21T09:04:19;77831.03;;;-145.37;100.00
13486;BME280;6815;59.336;17.998;2022-11-21T09:06:45;77835.06;;;-145.37;100.00
13486;BME280;6815;59.336;17.998;2022-11-21T09:09:10;77822.97;;;-145.37;100.00
13486;BME280;6815;59.336;17.998;2022-11-21T09:11:36;77825.00;;;-145.37;99.77
13486;BME280;6815;59.336;17.998;2022-11-21T09:14:04;77835.06;;;-145.37;100.00
13486;BME280;6815;59.336;17.998;2022-11-21T09:16:47;77827.00;;;-145.37;100.00
13486;BME280;6815;59.336;17.998;2022-11-21T09:19:31;77812.94;;;-145.37;100.00
13486;BME280;6815;59.336;17.998;2022-11-21T09:21:57;77820.97;;;-145.37;100.00
13486;BME280;6815;59.336;17.998;2022-11-21T09:24:22;77808.91;;;-145.37;99.74
13486;BME280;6815;59.336;17.998;2022-11-21T09:26:47;77804.88;;;-145.37;99.60
13486;BME280;6815;59.336;17.998;2022-11-21T09:29:13;77810.91;;;-145.37;99.37
13486;BME280;6815;59.336;17.998;2022-11-21T09:31:41;77814.94;;;-145.37;98.55
13486;BME280;6815;59.336;17.998;2022-11-21T09:34:07;77800.88;;;-145.37;98.17
13486;BME280;6815;59.336;17.998;2022-11-21T09:36:33;77800.88;;;-145.37;97.75
13486;BME280;6815;59.336;17.998;2022-11-21T09:38:58;77792.81;;;-145.37;96.65
13486;BME280;6815;59.336;17.998;2022-11-21T09:42:00;77798.84;;;-145.37;95.99
13486;BME280;6815;59.336;17.998;2022-11-21T09:47:29;77784.78;;;-145.37;93.05
13486;BME280;6815;59.336;17.998;2022-11-21T09:55:58;77774.72;;;-145.37;92.34
13486;BME280;6815;59.336;17.998;2022-11-21T09:58:40;77776.72;;;-145.37;91.39
13486;BME280;6815;59.336;17.998;2022-11-21T10:01:11;77782.75;;;-145.37;90.84
13486;BME280;6815;59.336;17.998;2022-11-21T10:03:49;77770.69;;;-145.37;90.84
13486;BME280;6815;59.336;17.998;2022-11-21T10:06:23;77770.69;;;-145.37;90.87
13486;BME280;6815;59.336;17.998;2022-11-21T10:14:44;77766.66;;;-145.37;91.32
13486;BME280;6815;59.336;17.998;2022-11-21T10:17:14;77752.59;;;-145.37;91.50
13486;BME280;6815;59.336;17.998;2022-11-21T10:25:12;77750.59;;;-145.37;92.07
13486;BME280;6815;59.336;17.998;2022-11-21T10:27:45;77754.59;;;-145.37;92.85
13486;BME280;6815;59.336;17.998;2022-11-21T10:30:17;77746.56;;;-145.37;93.67
13486;BME280;6815;59.336;17.998;2022-11-21T10:32:48;77748.56;;;-145.37;94.52
13486;BME280;6815;59.336;17.998;2022-11-21T10:35:21;77760.63;;;-145.37;94.83
13486;BME280;6815;59.336;17.998;2022-11-21T10:37:51;77770.69;;;-145.37;95.32
13486;BME280;6815;59.336;17.998;2022-11-21T10:40:39;77780.75;;;-145.37;95.75
13486;BME280;6815;59.336;17.998;2022-11-21T10:43:12;77778.75;;;-145.37;96.06
13486;BME280;6815;59.336;17.998;2022-11-21T10:46:00;77764.66;;;-145.37;96.23
13486;BME280;6815;59.336;17.998;2022-11-21T10:48:25;77766.66;;;-145.37;96.62
13486;BME280;6815;59.336;17.998;2022-11-21T10:51:04;77782.75;;;-145.37;97.11
13486;BME280;6815;59.336;17.998;2022-11-21T10:53:35;77798.84;;;-145.37;97.07
13486;BME280;6815;59.336;17.998;2022-11-21T10:56:20;77794.81;;;-145.37;97.56
13486;BME280;6815;59.336;17.998;2022-11-21T10:58:49;77804.88;;;-145.37;98.46
13486;BME280;6815;59.336;17.998;2022-11-21T11:01:33;77798.84;;;-145.37;98.64
13486;BME280;6815;59.336;17.998;2022-11-21T11:06:30;77790.81;;;-145.37;98.34
13486;BME280;6815;59.336;17.998;2022-11-21T11:08:55;77790.81;;;-145.37;98.77
13486;BME280;6815;59.336;17.998;2022-11-21T11:11:22;77796.84;;;-145.37;98.32
13486;BME280;6815;59.336;17.998;2022-11-21T11:14:04;77806.91;;;-145.37;98.57
13486;BME280;6815;59.336;17.998;2022-11-21T11:16:31;77794.81;;;-145.37;99.10
13486;BME280;6815;59.336;17.998;2022-11-21T11:21:29;77810.91;;;-145.37;99.53
13486;BME280;6815;59.336;17.998;2022-11-21T11:24:06;77831.03;;;-145.37;99.30
13486;BME280;6815;59.336;17.998;2022-11-21T11:29:21;77792.81;;;-145.37;99.20
13486;BME280;6815;59.336;17.998;2022-11-21T11:31:58;77794.81;;;-145.37;98.83
13486;BME280;6815;59.336;17.998;2022-11-21T11:34:44;77790.81;;;-145.37;98.65
13486;BME280;6815;59.336;17.998;2022-11-21T11:37:31;77782.75;;;-145.37;98.94
13486;BME280;6815;59.336;17.998;2022-11-21T11:40:07;77768.69;;;-145.37;98.77
13486;BME280;6815;59.336;17.998;2022-11-21T11:43:02;77758.63;;;-145.37;98.88
13486;BME280;6815;59.336;17.998;2022-11-21T11:48:55;77762.66;;;-145.37;98.82
13486;BME280;6815;59.336;17.998;2022-11-21T11:51:26;77770.69;;;-145.37;98.91
13486;BME280;6815;59.336;17.998;2022-11-21T11:54:07;77756.63;;;-145.37;98.77
13486;BME280;6815;59.336;17.998;2022-11-21T11:56:35;77756.63;;;-145.37;98.80
13486;BME280;6815;59.336;17.998;2022-11-21T12:01:44;77760.63;;;-145.37;97.57
13486;BME280;6815;59.336;17.998;2022-11-21T12:04:20;77770.69;;;-145.37;97.42
13486;BME280;6815;59.336;17.998;2022-11-21T12:09:26;77744.53;;;-145.37;96.51
13486;BME280;6815;59.336;17.998;2022-11-21T12:12:14;77748.56;;;-145.37;96.06
13486;BME280;6815;59.336;17.998;2022-11-21T12:15:14;77742.53;;;-145.37;96.48
13486;BME280;6815;59.336;17.998;2022-11-21T12:18:25;77752.59;;;-145.37;96.51
13486;BME280;6815;59.336;17.998;2022-11-21T12:21:12;77754.59;;;-145.37;95.88
13486;BME280;6815;59.336;17.998;2022-11-21T12:26:23;77748.56;;;-145.37;95.89
13486;BME280;6815;59.336;17.998;2022-11-21T12:29:04;77760.63;;;-145.37;95.58
13486;BME280;6815;59.336;17.998;2022-11-21T12:31:40;77742.53;;;-145.37;95.50
13486;BME280;6815;59.336;17.998;2022-11-21T12:37:46;77728.47;;;-145.37;95.97
13486;BME280;6815;59.336;17.998;2022-11-21T12:48:41;77738.50;;;-145.37;96.07
13486;BME280;6815;59.336;17.998;2022-11-21T12:51:55;77738.50;;;-145.37;95.88
13486;BME280;6815;59.336;17.998;2022-11-21T13:05:56;77734.50;;;-145.37;97.11
13486;BME280;6815;59.336;17.998;2022-11-21T13:08:27;77712.38;;;-145.37;96.86
13486;BME280;6815;59.336;17.998;2022-11-21T13:13:43;77706.34;;;-145.37;96.65
13486;BME280;6815;59.336;17.998;2022-11-21T13:16:18;77696.28;;;-145.37;96.52
13486;BME280;6815;59.336;17.998;2022-11-21T13:19:03;77694.25;;;-145.37;96.55
13486;BME280;6815;59.336;17.998;2022-11-21T13:27:26;77706.34;;;-145.37;96.42
13486;BME280;6815;59.336;17.998;2022-11-21T13:45:46;77710.34;;;-145.37;97.40
13486;BME280;6815;59.336;17.998;2022-11-21T13:51:01;77706.34;;;-145.37;97.26
13486;BME280;6815;59.336;17.998;2022-11-21T14:05:30;77704.31;;;-145.37;97.87
13486;BME280;6815;59.336;17.998;2022-11-21T14:08:26;77706.34;;;-145.37;97.53
13486;BME280;6815;59.336;17.998;2022-11-21T14:10:54;77712.38;;;-145.37;97.74
13486;BME280;6815;59.336;17.998;2022-11-21T14:13:31;77706.34;;;-145.37;97.89
13486;BME280;6815;59.336;17.998;2022-11-21T14:18:42;77710.34;;;-145.37;97.77
13486;BME280;6815;59.336;17.998;2022-11-21T14:21:31;77704.31;;;-145.37;98.12
13486;BME280;6815;59.336;17.998;2022-11-21T14:24:00;77708.34;;;-145.37;98.00
13486;BME280;6815;59.336;17.998;2022-11-21T14:26:30;77710.34;;;-145.37;98.03
13486;BME280;6815;59.336;17.998;2022-11-21T14:29:36;77712.38;;;-145.37;98.46
13486;BME280;6815;59.336;17.998;2022-11-21T14:32:02;77706.34;;;-145.37;98.02
13486;BME280;6815;59.336;17.998;2022-11-21T14:34:32;77716.38;;;-145.37;97.94
13486;BME280;6815;59.336;17.998;2022-11-21T14:36:59;77706.34;;;-145.37;97.60
13486;BME280;6815;59.336;17.998;2022-11-21T14:39:30;77708.34;;;-145.37;97.27
13486;BME280;6815;59.336;17.998;2022-11-21T14:41:59;77710.34;;;-145.37;97.13
13486;BME280;6815;59.336;17.998;2022-11-21T14:44:26;77726.44;;;-145.37;97.77